createdAt,value
2018-06-04T00:02:22.638Z,4.20
2018-06-04T00:04:51.208Z,4.47
2018-06-04T00:07:19.765Z,3.37
2018-06-04T00:09:48.342Z,3.20
2018-06-04T00:12:16.927Z,4.10
2018-06-04T00:14:45.504Z,3.60
2018-06-04T00:17:14.073Z,3.40
2018-06-04T00:19:42.662Z,4.13
2018-06-04T00:22:11.189Z,4.40
2018-06-04T00:24:39.733Z,4.17
2018-06-04T00:27:08.278Z,4.07
2018-06-04T00:29:36.872Z,4.47
2018-06-04T00:32:05.460Z,4.23
2018-06-04T00:34:34.005Z,5.00
2018-06-04T00:37:02.582Z,4.73
2018-06-04T00:39:31.105Z,3.90
2018-06-04T00:41:59.696Z,4.33
2018-06-04T00:44:28.241Z,3.80
2018-06-04T00:46:56.757Z,4.77
2018-06-04T00:49:25.299Z,3.97
2018-06-04T00:51:53.868Z,3.77
2018-06-04T00:54:22.461Z,4.30
2018-06-04T00:56:51.026Z,4.53
2018-06-04T00:59:19.568Z,5.00
2018-06-04T01:01:48.098Z,4.50
2018-06-04T01:04:16.647Z,4.50
2018-06-04T01:06:45.233Z,3.90
2018-06-04T01:09:13.761Z,4.00
2018-06-04T01:11:42.257Z,3.90
2018-06-04T01:14:10.826Z,4.20
2018-06-04T01:16:39.374Z,3.60
2018-06-04T01:19:08.009Z,3.90
2018-06-04T01:21:36.580Z,3.90
2018-06-04T01:24:05.113Z,4.00
2018-06-04T01:26:33.660Z,4.00
2018-06-04T01:29:02.151Z,4.03
2018-06-04T01:31:30.715Z,3.80
2018-06-04T01:33:59.255Z,4.00
2018-06-04T01:36:27.800Z,4.23
2018-06-04T01:38:56.344Z,3.63
2018-06-04T01:41:24.833Z,3.50
2018-06-04T01:43:53.401Z,4.80
2018-06-04T01:46:21.927Z,4.03
2018-06-04T01:48:50.416Z,5.00
2018-06-04T01:51:18.648Z,4.40
2018-06-04T01:53:47.172Z,4.50
2018-06-04T01:56:15.742Z,4.70
2018-06-04T01:58:44.297Z,3.77
2018-06-04T02:01:12.824Z,4.40
2018-06-04T02:03:41.374Z,4.23
2018-06-04T02:06:09.906Z,4.67
2018-06-04T02:08:38.494Z,3.83
2018-06-04T02:11:07.097Z,4.40
2018-06-04T02:13:35.664Z,4.63
2018-06-04T02:16:04.224Z,4.20
2018-06-04T02:18:32.825Z,4.70
2018-06-04T02:21:01.348Z,4.83
2018-06-04T02:23:29.894Z,4.43
2018-06-04T02:25:58.447Z,4.77
2018-06-04T02:28:27.006Z,4.80
2018-06-04T02:30:55.570Z,4.03
2018-06-04T02:33:24.128Z,3.70
2018-06-04T02:35:52.681Z,3.97
2018-06-04T02:38:21.187Z,4.50
2018-06-04T02:40:49.708Z,4.20
2018-06-04T02:43:18.262Z,4.30
2018-06-04T02:45:46.843Z,4.47
2018-06-04T02:48:15.403Z,3.70
2018-06-04T02:50:43.615Z,4.10
2018-06-04T02:53:12.154Z,3.80
2018-06-04T02:55:40.707Z,4.10
2018-06-04T02:58:09.249Z,4.10
2018-06-04T03:00:37.803Z,4.30
2018-06-04T03:03:06.360Z,4.47
2018-06-04T03:05:34.945Z,4.00
2018-06-04T03:08:03.519Z,5.03
2018-06-04T03:10:32.048Z,4.33
2018-06-04T03:13:00.601Z,3.87
2018-06-04T03:15:29.115Z,4.30
2018-06-04T03:17:57.702Z,4.33
2018-06-04T03:20:26.310Z,4.70
2018-06-04T03:22:54.924Z,4.23
2018-06-04T03:25:23.428Z,4.07
2018-06-04T03:27:51.992Z,4.23
2018-06-04T03:30:20.525Z,3.90
2018-06-04T03:32:49.036Z,5.37
2018-06-04T03:35:17.653Z,4.40
2018-06-04T03:37:46.213Z,4.50
2018-06-04T03:40:14.769Z,4.33
2018-06-04T03:42:43.264Z,4.20
2018-06-04T03:45:11.885Z,4.20
2018-06-04T03:47:40.402Z,4.00
2018-06-04T03:50:08.934Z,4.17
2018-06-04T03:52:37.503Z,3.87
2018-06-04T03:55:06.033Z,4.93
2018-06-04T03:57:34.632Z,4.30
2018-06-04T04:00:03.177Z,3.50
2018-06-04T04:02:31.690Z,4.40
2018-06-04T04:05:00.261Z,5.03
2018-06-04T04:07:28.801Z,4.57
2018-06-04T04:09:57.361Z,4.07
2018-06-04T04:12:25.905Z,3.70
2018-06-04T04:14:54.518Z,4.47
2018-06-04T04:17:23.100Z,4.57
2018-06-04T04:19:51.691Z,3.60
2018-06-04T04:22:20.269Z,4.73
2018-06-04T04:24:48.785Z,4.70
2018-06-04T04:27:17.349Z,4.40
2018-06-04T04:29:45.903Z,4.00
2018-06-04T04:32:14.409Z,4.23
2018-06-04T04:34:42.958Z,4.67
2018-06-04T04:37:11.486Z,4.53
2018-06-04T04:39:40.025Z,3.87
2018-06-04T04:42:08.566Z,4.60
2018-06-04T04:44:37.127Z,4.10
2018-06-04T04:47:05.740Z,4.10
2018-06-04T04:49:34.305Z,4.50
2018-06-04T04:52:02.850Z,4.33
2018-06-04T04:54:31.382Z,4.10
2018-06-04T04:56:59.922Z,4.37
2018-06-04T04:59:28.531Z,4.63
2018-06-04T05:01:57.052Z,4.10
2018-06-04T05:04:25.618Z,3.87
2018-06-04T05:06:54.207Z,3.40
2018-06-04T05:09:22.723Z,3.87
2018-06-04T05:11:51.263Z,4.20
2018-06-04T05:14:19.805Z,4.07
2018-06-04T05:16:48.376Z,3.93
2018-06-04T05:19:16.899Z,3.80
2018-06-04T05:21:45.430Z,3.37
2018-06-04T05:24:13.992Z,3.80
2018-06-04T05:26:42.536Z,3.13
2018-06-04T05:29:11.120Z,3.17
2018-06-04T05:31:39.649Z,4.00
2018-06-04T05:34:08.187Z,3.13
2018-06-04T05:36:36.788Z,3.40
2018-06-04T05:39:08.407Z,3.57
2018-06-04T05:41:36.976Z,3.90
2018-06-04T05:44:05.758Z,3.30
2018-06-04T05:46:34.279Z,3.20
2018-06-04T05:49:02.787Z,3.50
2018-06-04T05:51:31.356Z,3.60
2018-06-04T05:53:59.877Z,4.10
2018-06-04T05:56:28.462Z,3.30
2018-06-04T05:58:56.995Z,3.17
2018-06-04T06:01:25.557Z,3.30
2018-06-04T06:03:54.082Z,3.20
2018-06-04T06:06:22.607Z,2.80
2018-06-04T06:08:51.167Z,2.90
2018-06-04T06:11:19.720Z,3.40
2018-06-04T06:13:48.261Z,3.20
2018-06-04T06:16:16.813Z,2.80
2018-06-04T06:18:45.349Z,3.33
2018-06-04T06:21:13.940Z,2.80
2018-06-04T06:23:42.489Z,2.73
2018-06-04T06:26:11.068Z,3.70
2018-06-04T06:28:39.664Z,2.90
2018-06-04T06:31:08.243Z,5.87
2018-06-04T06:33:36.782Z,2.77
2018-06-04T06:36:05.376Z,2.90
2018-06-04T06:38:33.877Z,3.20
2018-06-04T06:41:02.454Z,3.27
2018-06-04T06:43:31.027Z,3.23
2018-06-04T06:45:59.564Z,3.63
2018-06-04T06:48:28.089Z,3.30
2018-06-04T06:50:56.664Z,2.60
2018-06-04T06:53:25.203Z,2.80
2018-06-04T06:55:53.775Z,3.00
2018-06-04T06:58:22.307Z,3.13
2018-06-04T07:00:50.991Z,4.93
2018-06-04T07:03:19.692Z,2.70
2018-06-04T07:05:48.188Z,2.97
2018-06-04T07:08:16.731Z,2.90
2018-06-04T07:10:45.248Z,3.23
2018-06-04T07:13:13.768Z,3.43
2018-06-04T07:15:42.329Z,3.57
2018-06-04T07:18:10.883Z,3.20
2018-06-04T07:20:39.459Z,2.60
2018-06-04T07:23:07.976Z,3.53
2018-06-04T07:25:36.656Z,3.07
2018-06-04T07:28:05.283Z,4.30
2018-06-04T07:30:33.826Z,2.80
2018-06-04T07:33:02.368Z,3.00
2018-06-04T07:35:30.957Z,3.30
2018-06-04T07:37:59.462Z,3.03
2018-06-04T07:40:28.003Z,3.70
2018-06-04T07:42:56.566Z,2.63
2018-06-04T07:45:25.124Z,2.80
2018-06-04T07:47:53.708Z,3.37
2018-06-04T07:50:22.217Z,2.93
2018-06-04T07:52:50.800Z,2.63
2018-06-04T07:55:19.309Z,2.97
2018-06-04T07:57:47.823Z,2.87
2018-06-04T08:00:16.432Z,3.20
2018-06-04T08:02:45.027Z,3.27
2018-06-04T08:05:13.577Z,2.73
2018-06-04T08:07:42.090Z,2.70
2018-06-04T08:10:10.718Z,2.60
2018-06-04T08:12:39.246Z,2.60
2018-06-04T08:15:07.817Z,3.20
2018-06-04T08:17:36.352Z,2.77
2018-06-04T08:20:04.996Z,3.00
2018-06-04T08:22:33.585Z,3.80
2018-06-04T08:25:02.143Z,2.70
2018-06-04T08:27:30.695Z,2.67
2018-06-04T08:29:59.265Z,3.00
2018-06-04T08:32:27.827Z,2.60
2018-06-04T08:34:56.386Z,2.63
2018-06-04T08:37:24.968Z,2.90
2018-06-04T08:39:53.527Z,2.93
2018-06-04T08:42:22.090Z,3.20
2018-06-04T08:44:50.658Z,3.00
2018-06-04T08:47:19.204Z,2.80
2018-06-04T08:49:47.769Z,2.50
2018-06-04T08:52:15.985Z,2.30
2018-06-04T08:54:44.554Z,3.10
2018-06-04T08:57:13.116Z,2.40
2018-06-04T08:59:41.624Z,2.77
2018-06-04T09:02:10.182Z,2.70
2018-06-04T09:04:38.712Z,2.50
2018-06-04T09:07:07.305Z,2.73
2018-06-04T09:09:35.833Z,2.67
2018-06-04T09:12:04.448Z,2.23
2018-06-04T09:14:32.999Z,3.40
2018-06-04T09:17:01.592Z,2.90
2018-06-04T09:19:30.179Z,2.70
2018-06-04T09:21:58.787Z,2.23
2018-06-04T09:24:27.365Z,2.20
2018-06-04T09:26:55.920Z,2.67
2018-06-04T09:29:24.467Z,3.20
2018-06-04T09:31:53.090Z,2.70
2018-06-04T09:34:21.627Z,3.13
2018-06-04T09:36:50.171Z,2.90
2018-06-04T09:39:18.783Z,2.30
2018-06-04T09:41:47.335Z,2.60
2018-06-04T09:44:15.987Z,2.70
2018-06-04T09:46:44.569Z,2.60
2018-06-04T09:49:13.239Z,2.30
2018-06-04T09:51:41.806Z,2.63
2018-06-04T09:54:10.442Z,3.03
2018-06-04T09:56:38.918Z,2.27
2018-06-04T09:59:07.461Z,2.43
2018-06-04T10:01:35.997Z,2.47
2018-06-04T10:04:04.560Z,2.37
2018-06-04T10:06:33.066Z,2.30
2018-06-04T10:09:01.638Z,2.30
2018-06-04T10:11:30.190Z,2.57
2018-06-04T10:13:58.775Z,2.47
2018-06-04T10:16:27.328Z,2.23
2018-06-04T10:18:55.953Z,2.07
2018-06-04T10:21:24.576Z,2.67
2018-06-04T10:23:53.129Z,2.57
2018-06-04T10:26:21.682Z,1.93
2018-06-04T10:28:50.265Z,2.13
2018-06-04T10:31:18.814Z,1.97
2018-06-04T10:33:47.346Z,2.03
2018-06-04T10:36:15.905Z,2.30
2018-06-04T10:38:44.461Z,2.10
2018-06-04T10:41:13.065Z,2.13
2018-06-04T10:43:41.643Z,2.30
2018-06-04T10:46:10.212Z,2.30
2018-06-04T10:48:38.833Z,2.03
2018-06-04T10:51:07.394Z,2.90
2018-06-04T10:53:35.948Z,2.70
2018-06-04T10:56:04.485Z,6.50
2018-06-04T10:58:33.158Z,6.10
2018-06-04T11:01:01.717Z,8.87
2018-06-04T11:03:30.276Z,6.70
2018-06-04T11:05:58.805Z,2.37
2018-06-04T11:08:27.354Z,2.17
2018-06-04T11:10:55.897Z,2.77
2018-06-04T11:13:24.072Z,2.90
2018-06-04T11:15:52.594Z,2.97
2018-06-04T11:18:21.167Z,2.47
2018-06-04T11:20:49.727Z,2.60
2018-06-04T11:23:18.224Z,1.80
2018-06-04T11:25:46.874Z,2.43
2018-06-04T11:28:15.413Z,2.60
2018-06-04T11:30:43.960Z,2.73
2018-06-04T11:33:12.517Z,2.70
2018-06-04T11:35:41.060Z,2.57
2018-06-04T11:38:09.721Z,3.27
2018-06-04T11:40:38.711Z,2.70
2018-06-04T11:43:07.426Z,2.97
2018-06-04T11:45:36.081Z,2.97
2018-06-04T11:48:04.314Z,2.77
2018-06-04T11:50:32.884Z,2.53
2018-06-04T11:53:01.465Z,2.80
2018-06-04T11:55:30.055Z,3.10
2018-06-04T11:57:58.609Z,2.73
2018-06-04T12:00:27.155Z,2.40
2018-06-04T12:02:55.322Z,2.40
2018-06-04T12:05:23.885Z,2.77
2018-06-04T12:07:52.440Z,2.43
2018-06-04T12:10:21.026Z,2.60
2018-06-04T12:12:49.581Z,2.50
2018-06-04T12:15:18.192Z,2.57
2018-06-04T12:17:46.769Z,2.53
2018-06-04T12:20:15.319Z,2.67
2018-06-04T12:22:43.853Z,2.50
2018-06-04T12:25:12.383Z,2.60
2018-06-04T12:27:40.915Z,2.43
2018-06-04T12:30:09.499Z,2.80
2018-06-04T12:32:38.059Z,2.97
2018-06-04T12:35:06.620Z,2.33
2018-06-04T12:37:35.220Z,2.33
2018-06-04T12:40:03.826Z,2.30
2018-06-04T12:42:32.405Z,2.63
2018-06-04T12:45:00.986Z,2.27
2018-06-04T12:47:29.586Z,2.80
2018-06-04T12:49:58.158Z,2.40
2018-06-04T12:52:26.711Z,2.17
2018-06-04T12:54:55.302Z,2.67
2018-06-04T12:57:23.858Z,2.43
2018-06-04T12:59:52.549Z,2.30
2018-06-04T13:02:24.130Z,2.70
2018-06-04T13:04:53.022Z,2.20
2018-06-04T13:07:21.147Z,2.50
2018-06-04T13:09:49.734Z,2.23
2018-06-04T13:12:18.313Z,2.33
2018-06-04T13:14:46.909Z,2.33
2018-06-04T13:17:15.484Z,2.77
2018-06-04T13:19:44.011Z,2.30
2018-06-04T13:22:12.611Z,2.47
2018-06-04T13:24:41.168Z,2.87
2018-06-04T13:27:09.762Z,2.07
2018-06-04T13:29:38.323Z,3.13
2018-06-04T13:32:06.859Z,2.80
2018-06-04T13:34:35.428Z,2.77
2018-06-04T13:37:03.982Z,2.50
2018-06-04T13:39:32.639Z,2.37
2018-06-04T13:42:01.159Z,1.90
2018-06-04T13:44:29.737Z,2.07
2018-06-04T13:46:58.281Z,2.30
2018-06-04T13:49:27.131Z,2.60
2018-06-04T13:51:55.696Z,2.67
2018-06-04T13:54:24.258Z,5.37
2018-06-04T13:56:52.824Z,14.23
2018-06-04T13:59:21.404Z,3.70
2018-06-04T14:01:50.735Z,2.80
2018-06-04T14:04:19.278Z,5.87
2018-06-04T14:06:47.859Z,6.57
2018-06-04T14:09:16.399Z,3.80
2018-06-04T14:11:44.977Z,3.07
2018-06-04T14:14:13.561Z,3.20
2018-06-04T14:16:42.196Z,3.20
2018-06-04T14:19:10.820Z,3.43
2018-06-04T14:21:39.439Z,3.27
2018-06-04T14:24:07.953Z,2.97
2018-06-04T14:26:36.527Z,2.87
2018-06-04T14:29:05.105Z,2.97
2018-06-04T14:31:33.655Z,2.97
2018-06-04T14:34:02.435Z,2.80
2018-06-04T14:36:33.286Z,2.90
2018-06-04T14:39:01.900Z,3.40
2018-06-04T14:41:31.388Z,3.00
2018-06-04T14:44:00.295Z,2.90
2018-06-04T14:46:28.861Z,3.17
2018-06-04T14:48:58.943Z,3.37
2018-06-04T14:51:27.496Z,2.97
2018-06-04T14:53:56.064Z,3.10
2018-06-04T14:56:24.663Z,3.67
2018-06-04T14:58:53.488Z,3.57
2018-06-04T15:01:22.066Z,3.67
2018-06-04T15:03:50.834Z,3.60
2018-06-04T15:06:19.410Z,3.40
2018-06-04T15:08:48.042Z,3.40
2018-06-04T15:11:16.968Z,3.40
2018-06-04T15:13:45.583Z,4.37
2018-06-04T15:16:14.484Z,3.50
2018-06-04T15:18:43.159Z,3.50
2018-06-04T15:21:11.730Z,3.60
2018-06-04T15:23:40.398Z,4.13
2018-06-04T15:26:09.455Z,3.73
2018-06-04T15:28:38.051Z,3.30
2018-06-04T15:31:07.145Z,3.37
2018-06-04T15:33:35.727Z,3.67
2018-06-04T15:36:04.285Z,3.40
2018-06-04T15:38:32.983Z,4.20
2018-06-04T15:41:01.532Z,4.60
2018-06-04T15:43:30.090Z,3.23
2018-06-04T15:45:58.713Z,4.20
2018-06-04T15:48:27.301Z,3.60
2018-06-04T15:50:56.281Z,4.00
2018-06-04T15:53:24.826Z,3.20
2018-06-04T15:55:53.858Z,3.90
2018-06-04T15:58:22.404Z,3.63
2018-06-04T16:00:51.019Z,3.87
2018-06-04T16:03:19.626Z,3.93
2018-06-04T16:05:48.313Z,3.00
2018-06-04T16:08:16.876Z,3.23
2018-06-04T16:10:45.495Z,3.33
2018-06-04T16:13:14.077Z,2.60
2018-06-04T16:15:42.637Z,3.00
2018-06-04T16:18:11.229Z,2.60
2018-06-04T16:20:40.201Z,3.03
2018-06-04T16:23:08.827Z,3.57
2018-06-04T16:25:37.396Z,2.93
2018-06-04T16:28:06.029Z,3.47
2018-06-04T16:30:34.558Z,3.37
2018-06-04T16:33:03.164Z,3.47
2018-06-04T16:35:31.731Z,2.97
2018-06-04T16:38:00.332Z,2.80
2018-06-04T16:40:28.877Z,2.77
2018-06-04T16:42:57.434Z,3.17
2018-06-04T16:45:26.094Z,3.23
2018-06-04T16:47:54.657Z,3.40
2018-06-04T16:50:23.255Z,3.43
2018-06-04T16:52:51.755Z,2.97
2018-06-04T16:55:20.677Z,3.23
2018-06-04T16:57:50.334Z,3.30
2018-06-04T17:00:18.938Z,3.27
2018-06-04T17:02:47.456Z,3.27
2018-06-04T17:05:16.000Z,3.23
2018-06-04T17:07:46.498Z,3.13
2018-06-04T17:10:15.195Z,2.73
2018-06-04T17:12:43.730Z,2.70
2018-06-04T17:15:12.362Z,3.20
2018-06-04T17:17:40.997Z,2.80
2018-06-04T17:20:09.553Z,2.80
2018-06-04T17:22:38.141Z,3.50
2018-06-04T17:25:06.703Z,3.30
2018-06-04T17:27:35.269Z,3.70
2018-06-04T17:30:03.939Z,3.17
2018-06-04T17:32:32.445Z,3.53
2018-06-04T17:35:01.020Z,3.07
2018-06-04T17:37:29.552Z,2.50
2018-06-04T17:39:58.159Z,3.50
2018-06-04T17:42:26.737Z,3.00
2018-06-04T17:44:55.303Z,3.50
2018-06-04T17:47:23.823Z,3.23
2018-06-04T17:49:52.396Z,3.20
2018-06-04T17:52:23.374Z,3.70
2018-06-04T17:54:51.939Z,3.23
2018-06-04T17:57:20.520Z,3.27
2018-06-04T17:59:49.027Z,3.60
2018-06-04T18:02:18.585Z,3.27
2018-06-04T18:04:47.138Z,3.77
2018-06-04T18:07:15.693Z,3.60
2018-06-04T18:09:44.289Z,3.60
2018-06-04T18:12:12.840Z,3.50
2018-06-04T18:14:41.376Z,3.17
2018-06-04T18:17:09.958Z,3.63
2018-06-04T18:19:38.523Z,2.70
2018-06-04T18:22:06.714Z,3.30
2018-06-04T18:24:35.272Z,3.07
2018-06-04T18:27:03.837Z,3.03
2018-06-04T18:29:32.392Z,3.73
2018-06-04T18:32:01.007Z,4.03
2018-06-04T18:34:29.662Z,3.40
2018-06-04T18:36:58.192Z,3.40
2018-06-04T18:39:26.721Z,3.77
2018-06-04T18:41:55.316Z,3.50
2018-06-04T18:44:23.833Z,3.07
2018-06-04T18:46:53.856Z,3.30
2018-06-04T18:49:22.458Z,3.93
2018-06-04T18:51:51.055Z,3.23
2018-06-04T18:54:19.634Z,3.97
2018-06-04T18:56:48.323Z,4.10
2018-06-04T18:59:16.889Z,4.17
2018-06-04T19:01:45.478Z,4.07
2018-06-04T19:04:14.085Z,3.80
2018-06-04T19:06:42.691Z,3.30
2018-06-04T19:09:11.479Z,3.87
2018-06-04T19:11:39.963Z,3.20
2018-06-04T19:14:08.512Z,3.40
2018-06-04T19:16:37.057Z,3.70
2018-06-04T19:19:05.771Z,4.30
2018-06-04T19:21:34.328Z,4.10
2018-06-04T19:24:02.901Z,3.70
2018-06-04T19:26:34.595Z,3.27
2018-06-04T19:29:03.230Z,3.43
2018-06-04T19:31:31.760Z,3.00
2018-06-04T19:34:00.323Z,3.40
2018-06-04T19:36:28.873Z,3.13
2018-06-04T19:38:57.476Z,3.37
2018-06-04T19:41:26.035Z,3.10
2018-06-04T19:43:54.579Z,2.50
2018-06-04T19:46:23.146Z,3.33
2018-06-04T19:48:58.412Z,2.47
2018-06-04T19:51:26.973Z,3.47
2018-06-04T19:53:55.514Z,2.63
2018-06-04T19:56:24.059Z,2.67
2018-06-04T19:58:52.663Z,1.87
2018-06-04T20:01:21.213Z,2.20
2018-06-04T20:03:49.816Z,2.00
2018-06-04T20:06:18.388Z,2.07
2018-06-04T20:08:46.910Z,2.33
2018-06-04T20:11:15.513Z,2.13
2018-06-04T20:13:44.000Z,1.90
2018-06-04T20:16:12.600Z,1.73
2018-06-04T20:18:41.131Z,1.63
2018-06-04T20:21:09.685Z,1.90
2018-06-04T20:23:38.278Z,2.07
2018-06-04T20:26:06.926Z,2.43
2018-06-04T20:28:35.447Z,2.03
2018-06-04T20:31:04.009Z,2.17
2018-06-04T20:33:32.595Z,1.87
2018-06-04T20:36:01.162Z,2.30
2018-06-04T20:38:29.724Z,2.47
2018-06-04T20:40:58.250Z,2.40
2018-06-04T20:43:26.789Z,2.70
2018-06-04T20:45:55.297Z,2.33
2018-06-04T20:48:23.841Z,2.00
2018-06-04T20:50:52.346Z,2.23
2018-06-04T20:53:20.908Z,2.13
2018-06-04T20:55:49.467Z,2.53
2018-06-04T20:58:17.993Z,2.47
2018-06-04T21:00:46.569Z,1.70
2018-06-04T21:03:15.115Z,2.07
2018-06-04T21:05:43.700Z,2.60
2018-06-04T21:08:12.272Z,2.77
2018-06-04T21:10:40.792Z,2.27
2018-06-04T21:13:09.335Z,2.67
2018-06-04T21:15:37.861Z,2.50
2018-06-04T21:18:06.432Z,2.03
2018-06-04T21:20:35.004Z,2.33
2018-06-04T21:23:03.552Z,2.73
2018-06-04T21:25:32.103Z,2.60
2018-06-04T21:28:00.603Z,2.50
2018-06-04T21:30:29.175Z,2.20
2018-06-04T21:32:57.684Z,2.00
2018-06-04T21:35:26.186Z,2.20
2018-06-04T21:37:54.743Z,2.40
2018-06-04T21:40:23.307Z,2.60
2018-06-04T21:42:52.013Z,2.47
2018-06-04T21:45:20.569Z,2.70
2018-06-04T21:47:49.116Z,2.40
2018-06-04T21:50:17.645Z,2.80
2018-06-04T21:52:46.413Z,2.20
2018-06-04T21:55:14.952Z,2.70
2018-06-04T21:57:43.512Z,3.33
2018-06-04T22:00:12.053Z,2.50
2018-06-04T22:02:40.585Z,2.93
2018-06-04T22:05:09.119Z,3.00
2018-06-04T22:07:37.673Z,1.93
2018-06-04T22:10:06.786Z,2.70
2018-06-04T22:12:35.361Z,2.67
2018-06-04T22:15:03.995Z,2.47
2018-06-04T22:17:32.620Z,2.63
2018-06-04T22:20:01.183Z,2.80
2018-06-04T22:22:29.729Z,2.67
2018-06-04T22:24:58.270Z,2.43
2018-06-04T22:27:26.890Z,2.90
2018-06-04T22:29:55.418Z,2.47
2018-06-04T22:32:23.982Z,3.00
2018-06-04T22:34:52.508Z,2.97
2018-06-04T22:37:21.034Z,2.80
2018-06-04T22:39:49.572Z,3.03
2018-06-04T22:42:18.087Z,3.30
2018-06-04T22:44:46.659Z,2.60
2018-06-04T22:47:15.246Z,2.80
2018-06-04T22:49:43.764Z,3.50
2018-06-04T22:52:12.332Z,2.73
2018-06-04T22:54:40.888Z,2.60
2018-06-04T22:57:09.453Z,2.67
2018-06-04T22:59:37.973Z,2.30
2018-06-04T23:02:06.506Z,2.40
2018-06-04T23:04:35.069Z,2.43
2018-06-04T23:07:03.637Z,3.07
2018-06-04T23:09:32.233Z,2.73
2018-06-04T23:12:00.760Z,3.10
2018-06-04T23:14:29.314Z,3.20
2018-06-04T23:16:57.900Z,2.70
2018-06-04T23:19:26.483Z,3.47
2018-06-04T23:21:55.034Z,3.00
2018-06-04T23:24:23.633Z,2.70
2018-06-04T23:26:52.132Z,2.80
2018-06-04T23:29:20.660Z,3.47
2018-06-04T23:31:49.170Z,3.03
2018-06-04T23:34:17.705Z,3.30
2018-06-04T23:36:46.209Z,3.20
2018-06-04T23:39:14.772Z,2.80
2018-06-04T23:41:43.349Z,2.57
2018-06-04T23:44:11.944Z,2.67
2018-06-04T23:46:40.476Z,2.50
2018-06-04T23:49:08.962Z,2.00
2018-06-04T23:51:37.497Z,2.40
2018-06-04T23:54:06.090Z,2.87
2018-06-04T23:56:34.610Z,2.80
2018-06-04T23:59:03.208Z,3.07
